sensor_id;sensor_type;location;lat;lon;timestamp;P1;durP1;ratioP1;P2;durP2;ratioP2
2225;SDS011;1119;48.288;8.726;2023-04-03T00:00:17;13.07;;;12.13;;
2225;SDS011;1119;48.288;8.726;2023-04-03T00:03:05;13.40;;;12.48;;
2225;SDS011;1119;48.288;8.726;2023-04-03T00:05:54;9.23;;;8.82;;
2225;SDS011;1119;48.288;8.726;2023-04-03T00:08:42;10.38;;;9.75;;
2225;SDS011;1119;48.288;8.726;2023-04-03T00:11:31;11.52;;;10.73;;
2225;SDS011;1119;48.288;8.726;2023-04-03T00:14:18;10.85;;;10.15;;
2225;SDS011;1119;48.288;8.726;2023-04-03T00:17:06;11.48;;;10.88;;
2225;SDS011;1119;48.288;8.726;2023-04-03T00:19:54;10.40;;;9.80;;
2225;SDS011;1119;48.288;8.726;2023-04-03T00:22:41;28.30;;;14.55;;
2225;SDS011;1119;48.288;8.726;2023-04-03T00:25:29;15.75;;;14.45;;
2225;SDS011;1119;48.288;8.726;2023-04-03T00:28:18;12.07;;;11.38;;
2225;SDS011;1119;48.288;8.726;2023-04-03T00:31:07;11.52;;;10.80;;
2225;SDS011;1119;48.288;8.726;2023-04-03T00:33:55;10.05;;;9.52;;
2225;SDS011;1119;48.288;8.726;2023-04-03T00:36:42;11.25;;;10.50;;
2225;SDS011;1119;48.288;8.726;2023-04-03T00:39:30;10.65;;;10.05;;
2225;SDS011;1119;48.288;8.726;2023-04-03T00:42:18;11.60;;;10.90;;
2225;SDS011;1119;48.288;8.726;2023-04-03T00:45:24;11.63;;;10.82;;
2225;SDS011;1119;48.288;8.726;2023-04-03T00:48:26;18.35;;;17.20;;
2225;SDS011;1119;48.288;8.726;2023-04-03T00:51:18;15.38;;;14.52;;
2225;SDS011;1119;48.288;8.726;2023-04-03T00:54:10;11.05;;;10.45;;
2225;SDS011;1119;48.288;8.726;2023-04-03T00:56:59;15.23;;;14.38;;
2225;SDS011;1119;48.288;8.726;2023-04-03T00:59:48;12.35;;;11.45;;
2225;SDS011;1119;48.288;8.726;2023-04-03T01:02:40;11.52;;;11.00;;
2225;SDS011;1119;48.288;8.726;2023-04-03T01:05:29;10.10;;;9.60;;
2225;SDS011;1119;48.288;8.726;2023-04-03T01:08:18;14.55;;;13.55;;
2225;SDS011;1119;48.288;8.726;2023-04-03T01:11:06;14.05;;;13.05;;
2225;SDS011;1119;48.288;8.726;2023-04-03T01:13:54;12.50;;;11.85;;
2225;SDS011;1119;48.288;8.726;2023-04-03T01:16:41;11.80;;;10.90;;
2225;SDS011;1119;48.288;8.726;2023-04-03T01:19:30;12.13;;;11.38;;
2225;SDS011;1119;48.288;8.726;2023-04-03T01:22:19;15.82;;;14.30;;
2225;SDS011;1119;48.288;8.726;2023-04-03T01:25:17;10.95;;;10.25;;
2225;SDS011;1119;48.288;8.726;2023-04-03T01:28:06;17.45;;;15.95;;
2225;SDS011;1119;48.288;8.726;2023-04-03T01:30:58;18.40;;;17.33;;
2225;SDS011;1119;48.288;8.726;2023-04-03T01:33:56;13.55;;;12.65;;
2225;SDS011;1119;48.288;8.726;2023-04-03T01:36:44;15.82;;;14.82;;
2225;SDS011;1119;48.288;8.726;2023-04-03T01:39:32;21.13;;;19.85;;
2225;SDS011;1119;48.288;8.726;2023-04-03T01:42:20;24.65;;;23.15;;
2225;SDS011;1119;48.288;8.726;2023-04-03T01:45:08;11.77;;;11.07;;
2225;SDS011;1119;48.288;8.726;2023-04-03T01:47:56;26.55;;;25.02;;
2225;SDS011;1119;48.288;8.726;2023-04-03T01:50:47;28.00;;;26.50;;
2225;SDS011;1119;48.288;8.726;2023-04-03T01:53:34;11.80;;;10.98;;
2225;SDS011;1119;48.288;8.726;2023-04-03T01:56:22;11.70;;;10.77;;
2225;SDS011;1119;48.288;8.726;2023-04-03T01:59:11;10.73;;;10.05;;
2225;SDS011;1119;48.288;8.726;2023-04-03T02:01:58;16.77;;;15.00;;
2225;SDS011;1119;48.288;8.726;2023-04-03T02:04:46;9.52;;;8.88;;
2225;SDS011;1119;48.288;8.726;2023-04-03T02:07:35;10.27;;;9.60;;
2225;SDS011;1119;48.288;8.726;2023-04-03T02:10:23;10.23;;;9.35;;
2225;SDS011;1119;48.288;8.726;2023-04-03T02:13:11;9.77;;;8.95;;
2225;SDS011;1119;48.288;8.726;2023-04-03T02:15:58;8.90;;;8.40;;
2225;SDS011;1119;48.288;8.726;2023-04-03T02:18:53;9.85;;;9.15;;
2225;SDS011;1119;48.288;8.726;2023-04-03T02:21:40;15.65;;;12.48;;
2225;SDS011;1119;48.288;8.726;2023-04-03T02:24:29;11.05;;;10.20;;
2225;SDS011;1119;48.288;8.726;2023-04-03T02:27:18;14.45;;;13.35;;
2225;SDS011;1119;48.288;8.726;2023-04-03T02:30:07;21.63;;;20.35;;
2225;SDS011;1119;48.288;8.726;2023-04-03T02:32:56;9.02;;;8.23;;
2225;SDS011;1119;48.288;8.726;2023-04-03T02:35:45;9.02;;;8.20;;
2225;SDS011;1119;48.288;8.726;2023-04-03T02:38:40;6.38;;;5.97;;
2225;SDS011;1119;48.288;8.726;2023-04-03T02:41:30;8.73;;;8.05;;
2225;SDS011;1119;48.288;8.726;2023-04-03T02:44:21;9.20;;;8.52;;
2225;SDS011;1119;48.288;8.726;2023-04-03T02:47:10;9.82;;;9.02;;
2225;SDS011;1119;48.288;8.726;2023-04-03T02:49:57;9.23;;;8.38;;
2225;SDS011;1119;48.288;8.726;2023-04-03T02:52:45;9.30;;;8.60;;
2225;SDS011;1119;48.288;8.726;2023-04-03T02:55:33;16.60;;;9.93;;
2225;SDS011;1119;48.288;8.726;2023-04-03T02:58:22;7.72;;;7.13;;
2225;SDS011;1119;48.288;8.726;2023-04-03T03:01:12;10.65;;;10.15;;
2225;SDS011;1119;48.288;8.726;2023-04-03T03:04:00;10.77;;;9.85;;
2225;SDS011;1119;48.288;8.726;2023-04-03T03:06:48;9.55;;;8.63;;
2225;SDS011;1119;48.288;8.726;2023-04-03T03:09:36;6.22;;;5.72;;
2225;SDS011;1119;48.288;8.726;2023-04-03T03:12:24;7.45;;;6.75;;
2225;SDS011;1119;48.288;8.726;2023-04-03T03:15:13;5.85;;;5.45;;
2225;SDS011;1119;48.288;8.726;2023-04-03T03:18:02;15.75;;;14.75;;
2225;SDS011;1119;48.288;8.726;2023-04-03T03:20:51;17.77;;;16.50;;
2225;SDS011;1119;48.288;8.726;2023-04-03T03:23:39;12.32;;;6.55;;
2225;SDS011;1119;48.288;8.726;2023-04-03T03:26:27;4.38;;;4.07;;
2225;SDS011;1119;48.288;8.726;2023-04-03T03:29:16;6.88;;;6.22;;
2225;SDS011;1119;48.288;8.726;2023-04-03T03:32:05;6.93;;;6.32;;
2225;SDS011;1119;48.288;8.726;2023-04-03T03:34:54;6.45;;;5.85;;
2225;SDS011;1119;48.288;8.726;2023-04-03T03:37:41;7.32;;;6.68;;
2225;SDS011;1119;48.288;8.726;2023-04-03T03:40:29;9.95;;;9.25;;
2225;SDS011;1119;48.288;8.726;2023-04-03T03:43:17;7.38;;;6.78;;
2225;SDS011;1119;48.288;8.726;2023-04-03T03:46:06;7.10;;;6.50;;
2225;SDS011;1119;48.288;8.726;2023-04-03T03:48:55;6.20;;;5.70;;
2225;SDS011;1119;48.288;8.726;2023-04-03T03:51:43;6.63;;;5.10;;
2225;SDS011;1119;48.288;8.726;2023-04-03T03:54:31;4.80;;;4.38;;
2225;SDS011;1119;48.288;8.726;2023-04-03T03:57:19;5.32;;;5.00;;
2225;SDS011;1119;48.288;8.726;2023-04-03T04:00:07;10.98;;;7.75;;
2225;SDS011;1119;48.288;8.726;2023-04-03T04:03:07;9.27;;;8.40;;
2225;SDS011;1119;48.288;8.726;2023-04-03T04:05:56;14.23;;;13.23;;
2225;SDS011;1119;48.288;8.726;2023-04-03T04:08:43;11.98;;;11.27;;
2225;SDS011;1119;48.288;8.726;2023-04-03T04:11:32;12.35;;;9.05;;
2225;SDS011;1119;48.288;8.726;2023-04-03T04:14:21;7.25;;;6.57;;
2225;SDS011;1119;48.288;8.726;2023-04-03T04:17:10;5.38;;;4.97;;
2225;SDS011;1119;48.288;8.726;2023-04-03T04:19:58;5.65;;;5.15;;
2225;SDS011;1119;48.288;8.726;2023-04-03T04:22:47;5.95;;;5.45;;
2225;SDS011;1119;48.288;8.726;2023-04-03T04:25:36;5.68;;;5.18;;
2225;SDS011;1119;48.288;8.726;2023-04-03T04:28:25;6.30;;;5.82;;
2225;SDS011;1119;48.288;8.726;2023-04-03T04:31:14;6.10;;;5.65;;
2225;SDS011;1119;48.288;8.726;2023-04-03T04:34:02;7.43;;;6.82;;
2225;SDS011;1119;48.288;8.726;2023-04-03T04:36:50;7.10;;;6.25;;
2225;SDS011;1119;48.288;8.726;2023-04-03T04:39:39;7.05;;;6.55;;
2225;SDS011;1119;48.288;8.726;2023-04-03T04:42:27;6.10;;;5.60;;
2225;SDS011;1119;48.288;8.726;2023-04-03T04:45:15;6.60;;;6.03;;
2225;SDS011;1119;48.288;8.726;2023-04-03T04:48:05;7.22;;;6.60;;
2225;SDS011;1119;48.288;8.726;2023-04-03T04:50:53;9.02;;;8.13;;
2225;SDS011;1119;48.288;8.726;2023-04-03T04:53:41;8.95;;;8.35;;
2225;SDS011;1119;48.288;8.726;2023-04-03T04:56:33;7.18;;;5.35;;
2225;SDS011;1119;48.288;8.726;2023-04-03T04:59:21;7.72;;;7.13;;
2225;SDS011;1119;48.288;8.726;2023-04-03T05:02:10;6.40;;;5.90;;
2225;SDS011;1119;48.288;8.726;2023-04-03T05:04:59;7.85;;;7.07;;
2225;SDS011;1119;48.288;8.726;2023-04-03T05:07:49;5.88;;;5.47;;
2225;SDS011;1119;48.288;8.726;2023-04-03T05:10:36;4.88;;;4.57;;
2225;SDS011;1119;48.288;8.726;2023-04-03T05:13:27;7.30;;;6.75;;
2225;SDS011;1119;48.288;8.726;2023-04-03T05:16:16;6.72;;;6.22;;
2225;SDS011;1119;48.288;8.726;2023-04-03T05:19:04;6.38;;;5.93;;
2225;SDS011;1119;48.288;8.726;2023-04-03T05:21:51;5.13;;;4.72;;
2225;SDS011;1119;48.288;8.726;2023-04-03T05:24:39;6.47;;;5.93;;
2225;SDS011;1119;48.288;8.726;2023-04-03T05:27:28;8.07;;;7.53;;
2225;SDS011;1119;48.288;8.726;2023-04-03T05:30:19;6.00;;;5.50;;
2225;SDS011;1119;48.288;8.726;2023-04-03T05:33:07;3.90;;;3.80;;
2225;SDS011;1119;48.288;8.726;2023-04-03T05:36:02;35.20;;;6.85;;
2225;SDS011;1119;48.288;8.726;2023-04-03T05:38:52;8.48;;;7.78;;
2225;SDS011;1119;48.288;8.726;2023-04-03T05:41:42;5.78;;;5.38;;
2225;SDS011;1119;48.288;8.726;2023-04-03T05:44:30;7.25;;;6.65;;
2225;SDS011;1119;48.288;8.726;2023-04-03T05:47:19;7.10;;;6.45;;
2225;SDS011;1119;48.288;8.726;2023-04-03T05:50:07;5.80;;;5.40;;
2225;SDS011;1119;48.288;8.726;2023-04-03T05:52:56;8.63;;;7.32;;
2225;SDS011;1119;48.288;8.726;2023-04-03T05:55:48;6.82;;;6.32;;
2225;SDS011;1119;48.288;8.726;2023-04-03T05:58:36;8.95;;;7.57;;
2225;SDS011;1119;48.288;8.726;2023-04-03T06:01:24;9.05;;;8.30;;
2225;SDS011;1119;48.288;8.726;2023-04-03T06:04:13;6.22;;;5.85;;
2225;SDS011;1119;48.288;8.726;2023-04-03T06:07:01;7.28;;;6.55;;
2225;SDS011;1119;48.288;8.726;2023-04-03T06:09:49;4.70;;;4.30;;
2225;SDS011;1119;48.288;8.726;2023-04-03T06:12:37;5.32;;;4.90;;
2225;SDS011;1119;48.288;8.726;2023-04-03T06:15:26;5.60;;;5.07;;
2225;SDS011;1119;48.288;8.726;2023-04-03T06:18:14;5.55;;;5.20;;
2225;SDS011;1119;48.288;8.726;2023-04-03T06:21:03;5.65;;;4.95;;
2225;SDS011;1119;48.288;8.726;2023-04-03T06:23:53;5.35;;;4.85;;
2225;SDS011;1119;48.288;8.726;2023-04-03T06:26:41;4.25;;;4.05;;
2225;SDS011;1119;48.288;8.726;2023-04-03T06:29:29;7.72;;;6.25;;
2225;SDS011;1119;48.288;8.726;2023-04-03T06:32:16;4.05;;;3.85;;
2225;SDS011;1119;48.288;8.726;2023-04-03T06:35:05;5.10;;;4.70;;
2225;SDS011;1119;48.288;8.726;2023-04-03T06:37:55;4.15;;;3.85;;
2225;SDS011;1119;48.288;8.726;2023-04-03T06:40:43;5.20;;;4.80;;
2225;SDS011;1119;48.288;8.726;2023-04-03T06:43:31;3.60;;;3.40;;
2225;SDS011;1119;48.288;8.726;2023-04-03T06:46:19;4.55;;;4.25;;
2225;SDS011;1119;48.288;8.726;2023-04-03T06:49:09;6.78;;;6.07;;
2225;SDS011;1119;48.288;8.726;2023-04-03T06:51:57;5.07;;;4.63;;
2225;SDS011;1119;48.288;8.726;2023-04-03T06:54:46;4.18;;;3.88;;
2225;SDS011;1119;48.288;8.726;2023-04-03T06:57:34;5.22;;;4.03;;
2225;SDS011;1119;48.288;8.726;2023-04-03T07:00:22;4.75;;;4.35;;
2225;SDS011;1119;48.288;8.726;2023-04-03T07:03:10;5.95;;;5.40;;
2225;SDS011;1119;48.288;8.726;2023-04-03T07:05:58;4.30;;;3.95;;
2225;SDS011;1119;48.288;8.726;2023-04-03T07:08:45;5.22;;;4.82;;
2225;SDS011;1119;48.288;8.726;2023-04-03T07:11:35;5.13;;;4.65;;
2225;SDS011;1119;48.288;8.726;2023-04-03T07:14:23;5.13;;;4.72;;
2225;SDS011;1119;48.288;8.726;2023-04-03T07:17:10;7.15;;;4.60;;
2225;SDS011;1119;48.288;8.726;2023-04-03T07:19:58;4.57;;;4.20;;
2225;SDS011;1119;48.288;8.726;2023-04-03T07:22:50;3.83;;;3.53;;
2225;SDS011;1119;48.288;8.726;2023-04-03T07:25:41;4.90;;;4.13;;
2225;SDS011;1119;48.288;8.726;2023-04-03T07:28:31;4.45;;;4.10;;
2225;SDS011;1119;48.288;8.726;2023-04-03T07:31:19;9.48;;;8.68;;
2225;SDS011;1119;48.288;8.726;2023-04-03T07:34:07;4.70;;;4.40;;
2225;SDS011;1119;48.288;8.726;2023-04-03T07:36:54;3.70;;;3.40;;
2225;SDS011;1119;48.288;8.726;2023-04-03T07:39:43;4.20;;;3.80;;
2225;SDS011;1119;48.288;8.726;2023-04-03T07:42:30;3.83;;;3.53;;
2225;SDS011;1119;48.288;8.726;2023-04-03T07:45:19;4.65;;;4.25;;
2225;SDS011;1119;48.288;8.726;2023-04-03T07:48:08;4.90;;;4.50;;
2225;SDS011;1119;48.288;8.726;2023-04-03T07:50:58;3.30;;;3.10;;
2225;SDS011;1119;48.288;8.726;2023-04-03T07:53:47;3.60;;;3.30;;
2225;SDS011;1119;48.288;8.726;2023-04-03T07:56:35;4.13;;;3.72;;
2225;SDS011;1119;48.288;8.726;2023-04-03T07:59:23;5.63;;;5.22;;
2225;SDS011;1119;48.288;8.726;2023-04-03T08:02:12;6.05;;;4.93;;
2225;SDS011;1119;48.288;8.726;2023-04-03T08:05:00;5.63;;;4.45;;
2225;SDS011;1119;48.288;8.726;2023-04-03T08:07:47;4.85;;;4.25;;
2225;SDS011;1119;48.288;8.726;2023-04-03T08:10:35;5.38;;;4.93;;
2225;SDS011;1119;48.288;8.726;2023-04-03T08:13:23;4.07;;;3.78;;
2225;SDS011;1119;48.288;8.726;2023-04-03T08:16:11;3.85;;;3.50;;
2225;SDS011;1119;48.288;8.726;2023-04-03T08:19:04;5.93;;;5.33;;
2225;SDS011;1119;48.288;8.726;2023-04-03T08:21:53;5.15;;;3.92;;
2225;SDS011;1119;48.288;8.726;2023-04-03T08:24:41;4.72;;;4.32;;
2225;SDS011;1119;48.288;8.726;2023-04-03T08:27:28;3.83;;;3.30;;
2225;SDS011;1119;48.288;8.726;2023-04-03T08:30:16;3.85;;;3.55;;
2225;SDS011;1119;48.288;8.726;2023-04-03T08:33:04;4.65;;;3.85;;
2225;SDS011;1119;48.288;8.726;2023-04-03T08:35:53;3.42;;;3.13;;
2225;SDS011;1119;48.288;8.726;2023-04-03T08:38:40;3.80;;;3.50;;
2225;SDS011;1119;48.288;8.726;2023-04-03T08:41:29;3.45;;;3.25;;
2225;SDS011;1119;48.288;8.726;2023-04-03T08:44:23;4.70;;;4.40;;
2225;SDS011;1119;48.288;8.726;2023-04-03T08:47:23;6.25;;;4.20;;
2225;SDS011;1119;48.288;8.726;2023-04-03T08:50:14;4.15;;;3.85;;
2225;SDS011;1119;48.288;8.726;2023-04-03T08:53:06;4.97;;;4.55;;
2225;SDS011;1119;48.288;8.726;2023-04-03T08:56:02;3.78;;;3.45;;
2225;SDS011;1119;48.288;8.726;2023-04-03T08:58:56;13.70;;;4.35;;
2225;SDS011;1119;48.288;8.726;2023-04-03T09:01:47;5.22;;;3.47;;
2225;SDS011;1119;48.288;8.726;2023-04-03T09:04:37;3.35;;;3.15;;
2225;SDS011;1119;48.288;8.726;2023-04-03T09:07:29;4.63;;;4.28;;
2225;SDS011;1119;48.288;8.726;2023-04-03T09:10:27;4.90;;;4.40;;
2225;SDS011;1119;48.288;8.726;2023-04-03T09:13:22;4.60;;;4.25;;
2225;SDS011;1119;48.288;8.726;2023-04-03T09:16:25;8.02;;;4.03;;
2225;SDS011;1119;48.288;8.726;2023-04-03T09:19:25;4.18;;;3.88;;
2225;SDS011;1119;48.288;8.726;2023-04-03T09:22:23;4.97;;;4.57;;
2225;SDS011;1119;48.288;8.726;2023-04-03T09:25:13;4.47;;;4.07;;
2225;SDS011;1119;48.288;8.726;2023-04-03T09:28:05;4.60;;;4.20;;
2225;SDS011;1119;48.288;8.726;2023-04-03T09:30:55;7.50;;;5.00;;
2225;SDS011;1119;48.288;8.726;2023-04-03T09:33:43;7.00;;;4.20;;
2225;SDS011;1119;48.288;8.726;2023-04-03T09:36:42;7.35;;;4.90;;
2225;SDS011;1119;48.288;8.726;2023-04-03T09:39:31;6.80;;;3.50;;
2225;SDS011;1119;48.288;8.726;2023-04-03T09:42:36;4.40;;;4.15;;
2225;SDS011;1119;48.288;8.726;2023-04-03T09:45:30;5.72;;;3.83;;
2225;SDS011;1119;48.288;8.726;2023-04-03T09:48:21;4.95;;;4.57;;
2225;SDS011;1119;48.288;8.726;2023-04-03T09:51:10;4.32;;;3.97;;
2225;SDS011;1119;48.288;8.726;2023-04-03T09:54:17;4.35;;;4.05;;
2225;SDS011;1119;48.288;8.726;2023-04-03T09:57:17;5.65;;;5.20;;
2225;SDS011;1119;48.288;8.726;2023-04-03T10:00:05;5.32;;;4.88;;
2225;SDS011;1119;48.288;8.726;2023-04-03T10:03:01;10.23;;;9.15;;
2225;SDS011;1119;48.288;8.726;2023-04-03T10:05:50;4.95;;;4.50;;
2225;SDS011;1119;48.288;8.726;2023-04-03T10:08:40;4.93;;;4.53;;
2225;SDS011;1119;48.288;8.726;2023-04-03T10:11:27;4.13;;;3.83;;
2225;SDS011;1119;48.288;8.726;2023-04-03T10:14:16;4.00;;;3.70;;
2225;SDS011;1119;48.288;8.726;2023-04-03T10:17:14;3.33;;;3.23;;
2225;SDS011;1119;48.288;8.726;2023-04-03T10:20:09;4.50;;;4.10;;
2225;SDS011;1119;48.288;8.726;2023-04-03T10:23:17;5.93;;;5.40;;
2225;SDS011;1119;48.288;8.726;2023-04-03T10:26:10;3.95;;;3.75;;
2225;SDS011;1119;48.288;8.726;2023-04-03T10:29:06;5.15;;;4.65;;
2225;SDS011;1119;48.288;8.726;2023-04-03T10:32:08;4.57;;;4.20;;
2225;SDS011;1119;48.288;8.726;2023-04-03T10:35:18;4.67;;;4.27;;
2225;SDS011;1119;48.288;8.726;2023-04-03T10:38:18;3.80;;;3.55;;
2225;SDS011;1119;48.288;8.726;2023-04-03T10:41:16;7.00;;;5.55;;
2225;SDS011;1119;48.288;8.726;2023-04-03T10:44:14;4.30;;;3.80;;
2225;SDS011;1119;48.288;8.726;2023-04-03T10:47:08;4.90;;;4.50;;
2225;SDS011;1119;48.288;8.726;2023-04-03T10:50:06;4.83;;;4.20;;
2225;SDS011;1119;48.288;8.726;2023-04-03T10:53:15;3.53;;;3.33;;
2225;SDS011;1119;48.288;8.726;2023-04-03T10:56:13;4.22;;;3.88;;
2225;SDS011;1119;48.288;8.726;2023-04-03T10:59:12;4.73;;;4.33;;
2225;SDS011;1119;48.288;8.726;2023-04-03T11:02:12;5.85;;;5.35;;
2225;SDS011;1119;48.288;8.726;2023-04-03T11:05:06;9.20;;;4.35;;
2225;SDS011;1119;48.288;8.726;2023-04-03T11:08:04;3.83;;;3.53;;
2225;SDS011;1119;48.288;8.726;2023-04-03T11:10:59;4.55;;;4.25;;
2225;SDS011;1119;48.288;8.726;2023-04-03T11:13:54;5.20;;;4.90;;
2225;SDS011;1119;48.288;8.726;2023-04-03T11:16:48;2.97;;;2.77;;
2225;SDS011;1119;48.288;8.726;2023-04-03T11:19:44;4.57;;;4.17;;
2225;SDS011;1119;48.288;8.726;2023-04-03T11:22:38;5.10;;;3.80;;
2225;SDS011;1119;48.288;8.726;2023-04-03T11:25:30;4.63;;;4.33;;
2225;SDS011;1119;48.288;8.726;2023-04-03T11:28:19;4.30;;;3.90;;
2225;SDS011;1119;48.288;8.726;2023-04-03T11:31:11;5.37;;;4.93;;
2225;SDS011;1119;48.288;8.726;2023-04-03T11:34:19;4.47;;;4.07;;
2225;SDS011;1119;48.288;8.726;2023-04-03T11:37:19;5.30;;;4.30;;
2225;SDS011;1119;48.288;8.726;2023-04-03T11:40:19;5.10;;;4.60;;
2225;SDS011;1119;48.288;8.726;2023-04-03T11:43:20;4.80;;;4.33;;
2225;SDS011;1119;48.288;8.726;2023-04-03T11:46:11;5.00;;;4.50;;
2225;SDS011;1119;48.288;8.726;2023-04-03T11:48:59;3.70;;;3.50;;
2225;SDS011;1119;48.288;8.726;2023-04-03T11:51:46;6.27;;;5.70;;
2225;SDS011;1119;48.288;8.726;2023-04-03T11:54:35;5.43;;;4.93;;
2225;SDS011;1119;48.288;8.726;2023-04-03T12:00:59;4.13;;;3.83;;
2225;SDS011;1119;48.288;8.726;2023-04-03T12:04:03;3.77;;;3.47;;
2225;SDS011;1119;48.288;8.726;2023-04-03T12:10:17;3.97;;;3.67;;
2225;SDS011;1119;48.288;8.726;2023-04-03T12:13:12;4.97;;;4.57;;
2225;SDS011;1119;48.288;8.726;2023-04-03T12:16:04;4.43;;;4.03;;
2225;SDS011;1119;48.288;8.726;2023-04-03T12:18:57;6.83;;;5.40;;
2225;SDS011;1119;48.288;8.726;2023-04-03T12:25:00;5.35;;;4.95;;
2225;SDS011;1119;48.288;8.726;2023-04-03T12:28:35;3.83;;;3.57;;
2225;SDS011;1119;48.288;8.726;2023-04-03T12:31:37;4.23;;;3.90;;
2225;SDS011;1119;48.288;8.726;2023-04-03T12:34:51;5.05;;;4.35;;
2225;SDS011;1119;48.288;8.726;2023-04-03T12:38:11;3.20;;;2.80;;
2225;SDS011;1119;48.288;8.726;2023-04-03T12:41:23;5.73;;;4.87;;
2225;SDS011;1119;48.288;8.726;2023-04-03T12:44:24;3.83;;;3.55;;
2225;SDS011;1119;48.288;8.726;2023-04-03T12:47:31;4.17;;;3.80;;
2225;SDS011;1119;48.288;8.726;2023-04-03T12:50:24;4.00;;;3.67;;
2225;SDS011;1119;48.288;8.726;2023-04-03T12:53:16;4.00;;;3.80;;
2225;SDS011;1119;48.288;8.726;2023-04-03T12:56:18;5.28;;;4.75;;
2225;SDS011;1119;48.288;8.726;2023-04-03T12:59:13;3.40;;;3.20;;
2225;SDS011;1119;48.288;8.726;2023-04-03T13:02:03;4.40;;;4.00;;
2225;SDS011;1119;48.288;8.726;2023-04-03T13:05:09;4.00;;;3.70;;
2225;SDS011;1119;48.288;8.726;2023-04-03T13:08:04;18.20;;;4.23;;
2225;SDS011;1119;48.288;8.726;2023-04-03T13:10:58;4.13;;;3.83;;
2225;SDS011;1119;48.288;8.726;2023-04-03T13:13:54;3.23;;;2.93;;
2225;SDS011;1119;48.288;8.726;2023-04-03T13:16:52;4.83;;;4.43;;
2225;SDS011;1119;48.288;8.726;2023-04-03T13:19:41;3.50;;;2.92;;
2225;SDS011;1119;48.288;8.726;2023-04-03T13:22:33;4.70;;;4.30;;
2225;SDS011;1119;48.288;8.726;2023-04-03T13:25:27;4.60;;;4.30;;
2225;SDS011;1119;48.288;8.726;2023-04-03T13:28:19;3.47;;;3.27;;
2225;SDS011;1119;48.288;8.726;2023-04-03T13:31:17;4.70;;;4.35;;
2225;SDS011;1119;48.288;8.726;2023-04-03T13:34:11;4.13;;;3.70;;
2225;SDS011;1119;48.288;8.726;2023-04-03T13:37:00;4.70;;;3.73;;
2225;SDS011;1119;48.288;8.726;2023-04-03T13:39:58;4.27;;;3.87;;
2225;SDS011;1119;48.288;8.726;2023-04-03T13:42:58;4.57;;;3.47;;
2225;SDS011;1119;48.288;8.726;2023-04-03T13:45:56;4.00;;;3.70;;
2225;SDS011;1119;48.288;8.726;2023-04-03T13:48:52;4.47;;;4.17;;
2225;SDS011;1119;48.288;8.726;2023-04-03T13:51:42;3.87;;;3.57;;
2225;SDS011;1119;48.288;8.726;2023-04-03T13:54:31;5.93;;;4.53;;
2225;SDS011;1119;48.288;8.726;2023-04-03T13:57:23;5.33;;;4.83;;
2225;SDS011;1119;48.288;8.726;2023-04-03T14:03:29;4.70;;;4.32;;
2225;SDS011;1119;48.288;8.726;2023-04-03T14:06:24;3.95;;;3.65;;
2225;SDS011;1119;48.288;8.726;2023-04-03T14:09:12;5.55;;;5.05;;
2225;SDS011;1119;48.288;8.726;2023-04-03T14:12:02;4.70;;;4.30;;
2225;SDS011;1119;48.288;8.726;2023-04-03T14:14:56;4.80;;;4.40;;
2225;SDS011;1119;48.288;8.726;2023-04-03T14:17:45;5.00;;;3.80;;
2225;SDS011;1119;48.288;8.726;2023-04-03T14:20:33;3.97;;;3.73;;
2225;SDS011;1119;48.288;8.726;2023-04-03T14:23:20;4.00;;;3.60;;
2225;SDS011;1119;48.288;8.726;2023-04-03T14:26:09;4.70;;;4.27;;
2225;SDS011;1119;48.288;8.726;2023-04-03T14:28:58;3.80;;;3.50;;
2225;SDS011;1119;48.288;8.726;2023-04-03T14:31:48;4.23;;;3.93;;
2225;SDS011;1119;48.288;8.726;2023-04-03T14:34:36;5.33;;;4.83;;
2225;SDS011;1119;48.288;8.726;2023-04-03T14:37:25;3.33;;;3.10;;
2225;SDS011;1119;48.288;8.726;2023-04-03T14:40:16;9.00;;;3.93;;
2225;SDS011;1119;48.288;8.726;2023-04-03T14:43:09;2.67;;;2.50;;
2225;SDS011;1119;48.288;8.726;2023-04-03T14:45:59;3.77;;;3.57;;
2225;SDS011;1119;48.288;8.726;2023-04-03T14:48:48;3.17;;;2.97;;
2225;SDS011;1119;48.288;8.726;2023-04-03T14:51:36;3.20;;;3.03;;
2225;SDS011;1119;48.288;8.726;2023-04-03T14:54:24;4.23;;;3.93;;
2225;SDS011;1119;48.288;8.726;2023-04-03T14:57:13;4.17;;;3.80;;
2225;SDS011;1119;48.288;8.726;2023-04-03T15:00:02;4.00;;;3.70;;
2225;SDS011;1119;48.288;8.726;2023-04-03T15:02:53;12.27;;;4.43;;
2225;SDS011;1119;48.288;8.726;2023-04-03T15:05:42;4.33;;;3.93;;
2225;SDS011;1119;48.288;8.726;2023-04-03T15:08:32;6.23;;;3.60;;
2225;SDS011;1119;48.288;8.726;2023-04-03T15:11:19;3.67;;;3.37;;
2225;SDS011;1119;48.288;8.726;2023-04-03T15:14:08;4.23;;;3.93;;
2225;SDS011;1119;48.288;8.726;2023-04-03T15:16:56;5.23;;;4.80;;
2225;SDS011;1119;48.288;8.726;2023-04-03T15:19:43;5.78;;;4.72;;
2225;SDS011;1119;48.288;8.726;2023-04-03T15:22:32;8.60;;;5.65;;
2225;SDS011;1119;48.288;8.726;2023-04-03T15:25:20;11.63;;;6.83;;
2225;SDS011;1119;48.288;8.726;2023-04-03T15:28:08;4.60;;;4.20;;
2225;SDS011;1119;48.288;8.726;2023-04-03T15:31:03;3.50;;;3.30;;
2225;SDS011;1119;48.288;8.726;2023-04-03T15:33:51;4.73;;;4.03;;
2225;SDS011;1119;48.288;8.726;2023-04-03T15:36:39;7.00;;;4.20;;
2225;SDS011;1119;48.288;8.726;2023-04-03T15:39:28;4.43;;;4.00;;
2225;SDS011;1119;48.288;8.726;2023-04-03T15:42:15;4.60;;;3.70;;
2225;SDS011;1119;48.288;8.726;2023-04-03T15:45:03;4.78;;;3.67;;
2225;SDS011;1119;48.288;8.726;2023-04-03T15:47:52;4.73;;;3.93;;
2225;SDS011;1119;48.288;8.726;2023-04-03T15:50:40;3.07;;;2.87;;
2225;SDS011;1119;48.288;8.726;2023-04-03T15:53:28;4.70;;;3.50;;
2225;SDS011;1119;48.288;8.726;2023-04-03T15:56:17;3.10;;;2.90;;
2225;SDS011;1119;48.288;8.726;2023-04-03T15:59:05;3.50;;;3.20;;
2225;SDS011;1119;48.288;8.726;2023-04-03T16:01:52;4.57;;;3.30;;
2225;SDS011;1119;48.288;8.726;2023-04-03T16:04:40;5.20;;;4.70;;
2225;SDS011;1119;48.288;8.726;2023-04-03T16:07:28;3.13;;;2.90;;
2225;SDS011;1119;48.288;8.726;2023-04-03T16:10:16;4.90;;;4.47;;
2225;SDS011;1119;48.288;8.726;2023-04-03T16:13:06;3.55;;;3.25;;
2225;SDS011;1119;48.288;8.726;2023-04-03T16:15:54;3.47;;;3.17;;
2225;SDS011;1119;48.288;8.726;2023-04-03T16:18:42;4.03;;;3.72;;
2225;SDS011;1119;48.288;8.726;2023-04-03T16:21:30;3.50;;;3.28;;
2225;SDS011;1119;48.288;8.726;2023-04-03T16:24:19;3.60;;;3.30;;
2225;SDS011;1119;48.288;8.726;2023-04-03T16:27:06;4.47;;;3.30;;
2225;SDS011;1119;48.288;8.726;2023-04-03T16:29:55;2.70;;;2.50;;
2225;SDS011;1119;48.288;8.726;2023-04-03T16:32:43;3.80;;;3.50;;
2225;SDS011;1119;48.288;8.726;2023-04-03T16:35:31;7.43;;;4.47;;
2225;SDS011;1119;48.288;8.726;2023-04-03T16:38:19;2.93;;;2.73;;
2225;SDS011;1119;48.288;8.726;2023-04-03T16:41:07;4.30;;;3.97;;
2225;SDS011;1119;48.288;8.726;2023-04-03T16:43:55;3.50;;;3.23;;
2225;SDS011;1119;48.288;8.726;2023-04-03T16:46:44;3.53;;;3.23;;
2225;SDS011;1119;48.288;8.726;2023-04-03T16:49:32;3.55;;;3.20;;
2225;SDS011;1119;48.288;8.726;2023-04-03T16:52:19;3.30;;;3.00;;
2225;SDS011;1119;48.288;8.726;2023-04-03T16:55:07;4.43;;;3.00;;
2225;SDS011;1119;48.288;8.726;2023-04-03T16:57:55;3.03;;;2.83;;
2225;SDS011;1119;48.288;8.726;2023-04-03T17:00:43;4.53;;;4.13;;
2225;SDS011;1119;48.288;8.726;2023-04-03T17:03:34;4.50;;;3.67;;
2225;SDS011;1119;48.288;8.726;2023-04-03T17:06:21;5.03;;;3.50;;
2225;SDS011;1119;48.288;8.726;2023-04-03T17:09:10;3.57;;;3.27;;
2225;SDS011;1119;48.288;8.726;2023-04-03T17:11:57;4.10;;;3.70;;
2225;SDS011;1119;48.288;8.726;2023-04-03T17:14:45;5.90;;;3.47;;
2225;SDS011;1119;48.288;8.726;2023-04-03T17:17:33;6.00;;;3.70;;
2225;SDS011;1119;48.288;8.726;2023-04-03T17:20:23;4.73;;;3.97;;
2225;SDS011;1119;48.288;8.726;2023-04-03T17:23:10;4.17;;;3.80;;
2225;SDS011;1119;48.288;8.726;2023-04-03T17:25:58;4.37;;;4.03;;
2225;SDS011;1119;48.288;8.726;2023-04-03T17:28:46;4.47;;;4.07;;
2225;SDS011;1119;48.288;8.726;2023-04-03T17:31:33;4.03;;;3.70;;
2225;SDS011;1119;48.288;8.726;2023-04-03T17:34:21;3.97;;;3.65;;
2225;SDS011;1119;48.288;8.726;2023-04-03T17:37:11;3.83;;;3.45;;
2225;SDS011;1119;48.288;8.726;2023-04-03T17:39:59;4.00;;;3.70;;
2225;SDS011;1119;48.288;8.726;2023-04-03T17:42:47;5.03;;;4.53;;
2225;SDS011;1119;48.288;8.726;2023-04-03T17:45:34;2.80;;;2.60;;
2225;SDS011;1119;48.288;8.726;2023-04-03T17:48:22;4.13;;;3.83;;